Time;durP1;ratioP1;P1;durP2;ratioP2;P2;SDS_P1;SDS_P2;PMS_P1;PMS_P2;Temp;Humidity;BMP_temperature;BMP_pressure;BME280_temperature;BME280_humidity;BME280_pressure;Samples;Min_cycle;Max_cycle;Signal;HPM_P1;HPM_P2
2022/06/04 00:00:57;;;;;;;2.57;1.30;;;13.50;57.90;;;;;;4955701;29;20185;-74
2022/06/04 00:03:26;;;;;;;4.87;1.33;;;13.50;58.10;;;;;;4956292;28;20235;-82
2022/06/04 00:05:56;;;;;;;4.67;1.30;;;13.50;58.10;;;;;;4939174;29;20204;-81
2022/06/04 00:08:25;;;;;;;3.33;1.23;;;13.60;57.90;;;;;;4955864;29;20187;-73
2022/06/04 00:16:28;;;;;;;3.50;1.37;;;13.80;56.00;;;;;;4948587;28;20234;-83
2022/06/04 00:18:56;;;;;;;2.10;1.20;;;13.80;56.00;;;;;;4950381;28;20195;-74
2022/06/04 00:21:24;;;;;;;2.90;1.20;;;14.00;56.20;;;;;;4955179;28;20211;-77
2022/06/04 00:23:51;;;;;;;2.90;1.63;;;13.90;55.80;;;;;;4953909;28;20210;-81
2022/06/04 00:26:19;;;;;;;1.63;1.00;;;14.00;55.40;;;;;;4954705;28;20230;-78
2022/06/04 00:28:48;;;;;;;2.53;1.10;;;14.10;54.40;;;;;;4955715;28;20213;-75
2022/06/04 00:31:19;;;;;;;2.03;1.10;;;14.10;54.20;;;;;;4956093;28;20214;-76
2022/06/04 00:33:47;;;;;;;1.67;1.00;;;14.20;54.30;;;;;;4955893;29;20657;-77
2022/06/04 00:36:14;;;;;;;3.57;1.10;;;14.30;53.10;;;;;;4955562;28;20179;-78
2022/06/04 00:38:44;;;;;;;1.20;0.90;;;14.30;53.80;;;;;;4955314;29;20179;-80
2022/06/04 00:41:46;;;;;;;3.47;1.57;;;14.50;54.00;;;;;;4954723;28;20270;-76
2022/06/04 00:44:13;;;;;;;3.03;1.43;;;14.50;53.90;;;;;;4929538;29;20232;-77
2022/06/04 00:46:41;;;;;;;1.20;1.00;;;14.50;53.30;;;;;;4955767;28;20214;-74
2022/06/04 00:49:10;;;;;;;2.07;1.30;;;14.60;53.20;;;;;;4956045;29;20247;-77
2022/06/04 00:51:39;;;;;;;3.13;1.40;;;14.70;52.80;;;;;;4955483;28;20218;-76
2022/06/04 00:54:08;;;;;;;6.40;1.43;;;14.70;52.90;;;;;;4954587;28;20658;-75
2022/06/04 00:56:58;;;;;;;4.07;1.37;;;14.70;53.40;;;;;;4938824;29;20180;-78
2022/06/04 00:59:45;;;;;;;4.20;1.47;;;14.70;52.60;;;;;;4934586;29;20199;-82
2022/06/04 01:02:21;;;;;;;4.27;1.40;;;14.80;51.80;;;;;;4951085;28;20275;-76
2022/06/04 01:05:06;;;;;;;2.37;1.07;;;14.80;52.60;;;;;;4955711;28;20205;-80
2022/06/04 01:07:53;;;;;;;4.47;1.33;;;14.90;51.90;;;;;;4955360;28;20910;-77
2022/06/04 01:10:30;;;;;;;2.20;1.23;;;14.80;51.60;;;;;;4954522;29;20192;-82
2022/06/04 01:13:09;;;;;;;3.73;1.20;;;15.00;51.80;;;;;;4954231;28;20194;-77
2022/06/04 01:15:57;;;;;;;3.23;1.23;;;15.20;51.50;;;;;;4955739;29;20231;-75
2022/06/04 01:18:58;;;;;;;3.20;1.20;;;15.40;51.40;;;;;;4955888;29;20211;-77
2022/06/04 01:21:44;;;;;;;1.60;1.07;;;15.40;51.60;;;;;;4955051;29;20191;-80
2022/06/04 01:24:30;;;;;;;2.77;1.40;;;15.70;50.70;;;;;;4954320;28;20183;-73
2022/06/04 01:27:03;;;;;;;2.87;1.00;;;15.60;50.40;;;;;;4945261;28;20249;-76
2022/06/04 01:29:48;;;;;;;2.00;1.20;;;15.60;50.80;;;;;;4954383;28;20194;-83
2022/06/04 01:32:46;;;;;;;3.27;1.20;;;15.60;50.20;;;;;;4933030;29;20197;-78
2022/06/04 01:35:24;;;;;;;3.17;1.10;;;15.80;50.50;;;;;;4953055;29;20183;-80
2022/06/04 01:37:55;;;;;;;1.67;1.20;;;15.90;48.50;;;;;;4953643;28;20237;-80
2022/06/04 01:41:13;;;;;;;4.30;1.10;;;16.10;48.00;;;;;;4954386;28;20175;-75
2022/06/04 01:43:25;;;;;;;1.57;0.93;;;16.10;48.10;;;;;;4943816;28;20572;-86
2022/06/04 01:45:57;;;;;;;1.67;0.93;;;16.20;48.40;;;;;;4951407;28;20307;-77
2022/06/04 01:48:27;;;;;;;1.53;1.13;;;16.30;47.70;;;;;;4950423;28;20274;-77
2022/06/04 01:51:00;;;;;;;3.03;1.20;;;16.20;47.00;;;;;;4952017;28;20192;-79
2022/06/04 01:53:33;;;;;;;2.67;1.00;;;16.10;47.80;;;;;;4954675;29;20304;-82
2022/06/04 01:56:21;;;;;;;1.67;0.90;;;16.10;47.00;;;;;;4951557;28;20185;-79
2022/06/04 01:59:14;;;;;;;1.60;0.90;;;16.20;47.40;;;;;;4950861;28;20214;-85
2022/06/04 02:01:45;;;;;;;2.23;0.97;;;16.50;46.80;;;;;;4950291;28;20190;-80
2022/06/04 02:04:18;;;;;;;1.80;1.00;;;16.60;47.10;;;;;;4952899;28;20197;-81
2022/06/04 02:09:42;;;;;;;2.33;1.00;;;16.70;45.80;;;;;;4954270;28;20238;-78
2022/06/04 02:12:11;;;;;;;2.03;1.03;;;16.60;45.30;;;;;;4952588;28;20662;-78
2022/06/04 02:14:40;;;;;;;5.83;1.00;;;16.80;44.80;;;;;;4953547;29;20198;-86
2022/06/04 02:17:14;;;;;;;2.47;0.90;;;17.00;44.20;;;;;;4924360;29;20607;-76
2022/06/04 02:19:42;;;;;;;2.80;1.20;;;17.10;43.10;;;;;;4939348;29;20187;-75
2022/06/04 02:22:10;;;;;;;2.57;0.80;;;16.90;43.10;;;;;;4953950;29;20183;-74
2022/06/04 02:24:41;;;;;;;3.20;1.00;;;16.90;43.20;;;;;;4953538;28;20231;-81
2022/06/04 02:27:10;;;;;;;2.80;1.00;;;16.90;43.50;;;;;;4953928;28;20307;-81
2022/06/04 02:29:39;;;;;;;1.07;0.80;;;17.10;43.20;;;;;;4953634;28;20603;-77
2022/06/04 02:32:10;;;;;;;2.37;0.90;;;16.90;43.30;;;;;;4937158;29;20183;-78
2022/06/04 02:34:53;;;;;;;1.70;1.00;;;17.00;43.90;;;;;;4954200;29;20195;-78
2022/06/04 02:37:44;;;;;;;1.63;0.90;;;16.90;43.40;;;;;;4952789;29;20190;-80
2022/06/04 02:40:24;;;;;;;1.77;0.70;;;17.00;43.30;;;;;;4953306;29;20191;-79
2022/06/04 02:43:11;;;;;;;0.97;0.70;;;17.00;43.20;;;;;;4954271;28;20179;-77
2022/06/04 02:45:50;;;;;;;2.27;0.77;;;17.10;43.30;;;;;;4953875;29;20211;-77
2022/06/04 02:48:33;;;;;;;1.17;0.70;;;17.20;43.90;;;;;;4953309;28;20196;-76
2022/06/04 02:51:28;;;;;;;1.87;0.80;;;17.30;42.90;;;;;;4951903;28;20230;-80
2022/06/04 02:53:57;;;;;;;2.50;1.10;;;17.30;43.30;;;;;;4954413;29;20187;-84
2022/06/04 02:56:30;;;;;;;1.73;0.80;;;17.40;43.40;;;;;;4953649;29;20179;-79
2022/06/04 02:59:03;;;;;;;1.97;0.90;;;17.60;43.20;;;;;;4953380;28;20550;-79
2022/06/04 03:01:34;;;;;;;3.10;1.00;;;17.60;42.80;;;;;;4954431;29;20661;-81
2022/06/04 03:04:01;;;;;;;2.00;1.07;;;17.60;42.90;;;;;;4954242;28;20214;-77
2022/06/04 03:06:33;;;;;;;3.67;1.13;;;17.50;42.50;;;;;;4953774;29;20218;-80
2022/06/04 03:09:05;;;;;;;3.23;1.00;;;17.70;42.60;;;;;;4953930;28;20183;-78
2022/06/04 03:11:37;;;;;;;1.60;0.90;;;17.60;42.20;;;;;;4953428;29;20275;-84
2022/06/04 03:14:05;;;;;;;0.93;0.83;;;17.70;42.40;;;;;;4954163;28;20219;-77
2022/06/04 03:16:37;;;;;;;5.10;1.00;;;17.70;42.60;;;;;;4954389;29;20648;-77
2022/06/04 03:19:07;;;;;;;1.17;0.80;;;17.90;42.10;;;;;;4954249;28;20333;-82
2022/06/04 03:21:36;;;;;;;2.37;1.00;;;17.90;41.80;;;;;;4937520;29;20183;-83
2022/06/04 03:24:05;;;;;;;1.43;0.90;;;18.00;42.10;;;;;;4957746;28;20187;-74
2022/06/04 03:26:32;;;;;;;1.97;0.90;;;17.90;41.70;;;;;;4950973;29;20314;-80
2022/06/04 03:29:00;;;;;;;1.00;0.90;;;18.10;41.60;;;;;;4955742;29;20760;-82
2022/06/04 03:31:28;;;;;;;1.33;0.70;;;18.30;41.30;;;;;;4956967;28;20198;-79
2022/06/04 03:33:57;;;;;;;1.27;0.80;;;18.60;40.60;;;;;;4955769;28;20653;-81
2022/06/04 03:36:25;;;;;;;2.20;0.80;;;18.70;40.70;;;;;;4957025;28;20252;-80
2022/06/04 03:38:56;;;;;;;1.47;1.00;;;18.50;40.90;;;;;;4957546;28;20186;-75
2022/06/04 03:41:24;;;;;;;1.17;0.80;;;18.30;41.40;;;;;;4957144;28;20234;-83
2022/06/04 03:43:52;;;;;;;2.60;0.80;;;18.30;41.40;;;;;;4957390;28;20190;-83
2022/06/04 03:46:21;;;;;;;3.33;0.70;;;18.50;41.00;;;;;;4953144;28;20610;-77
2022/06/04 03:48:48;;;;;;;1.90;0.90;;;18.50;40.50;;;;;;4937001;28;20184;-77
2022/06/04 03:51:16;;;;;;;1.83;0.90;;;18.80;40.30;;;;;;4956928;28;20184;-75
2022/06/04 03:53:43;;;;;;;0.93;0.73;;;18.90;40.60;;;;;;4955474;28;20179;-82
2022/06/04 03:56:11;;;;;;;1.57;0.80;;;19.20;40.00;;;;;;4938631;29;20214;-79
2022/06/04 03:58:38;;;;;;;2.03;0.80;;;19.30;40.00;;;;;;4932489;29;20184;-76
2022/06/04 04:01:26;;;;;;;1.67;0.80;;;19.30;39.30;;;;;;4934601;29;20192;-78
2022/06/04 04:03:54;;;;;;;2.87;0.70;;;19.10;39.00;;;;;;4955087;28;20262;-75
2022/06/04 04:06:24;;;;;;;3.93;0.83;;;19.10;38.70;;;;;;4936796;29;20211;-79
2022/06/04 04:08:52;;;;;;;2.50;0.70;;;18.80;39.30;;;;;;4955925;28;20231;-77
2022/06/04 04:11:22;;;;;;;1.70;0.90;;;18.80;39.50;;;;;;4936696;29;20183;-76
2022/06/04 04:13:51;;;;;;;0.90;0.70;;;18.80;39.60;;;;;;4938639;29;20557;-74
2022/06/04 04:16:20;;;;;;;0.93;0.83;;;19.10;39.00;;;;;;4956438;28;20186;-83
2022/06/04 04:18:48;;;;;;;1.23;0.80;;;19.30;38.80;;;;;;4939375;29;20183;-76
2022/06/04 04:21:18;;;;;;;1.20;0.90;;;19.50;38.50;;;;;;4938961;29;20191;-78
2022/06/04 04:23:45;;;;;;;1.00;0.77;;;19.50;38.70;;;;;;4955973;28;20180;-80
2022/06/04 04:26:15;;;;;;;2.60;0.90;;;19.30;38.60;;;;;;4955460;28;20235;-80
2022/06/04 04:28:43;;;;;;;0.60;0.53;;;19.30;39.10;;;;;;4955843;28;20195;-79
2022/06/04 04:31:17;;;;;;;3.73;0.97;;;19.80;38.20;;;;;;4942800;29;20650;-80
2022/06/04 04:33:44;;;;;;;1.87;0.80;;;19.70;38.20;;;;;;4955051;28;20183;-81
2022/06/04 04:36:12;;;;;;;1.93;0.77;;;19.80;38.40;;;;;;4938218;29;20272;-81
2022/06/04 04:38:40;;;;;;;1.47;0.90;;;19.90;38.10;;;;;;4955783;29;20193;-82
2022/06/04 04:41:12;;;;;;;1.80;0.60;;;20.00;38.10;;;;;;4955643;28;20627;-80
2022/06/04 04:43:40;;;;;;;1.70;1.00;;;19.70;38.20;;;;;;4956158;28;20171;-79
2022/06/04 04:46:10;;;;;;;1.57;0.70;;;20.10;37.80;;;;;;4938491;29;20238;-79
2022/06/04 04:48:37;;;;;;;3.30;0.80;;;20.30;37.10;;;;;;4952429;28;20207;-87
2022/06/04 04:51:05;;;;;;;1.10;0.70;;;20.00;38.00;;;;;;4954798;28;20190;-78
2022/06/04 04:53:33;;;;;;;1.20;0.70;;;19.80;37.70;;;;;;4954956;28;20191;-87
2022/06/04 04:56:00;;;;;;;0.50;0.50;;;20.00;38.00;;;;;;4937771;29;20550;-83
2022/06/04 04:58:30;;;;;;;1.53;0.70;;;20.20;37.50;;;;;;4955235;29;20326;-76
2022/06/04 05:00:58;;;;;;;3.00;0.80;;;19.80;38.20;;;;;;4955264;29;20243;-82
2022/06/04 05:03:25;;;;;;;2.13;0.80;;;19.80;38.80;;;;;;4955514;28;20271;-79
2022/06/04 05:06:04;;;;;;;1.73;0.90;;;19.70;38.90;;;;;;4954861;28;20261;-84
2022/06/04 05:08:32;;;;;;;1.13;0.60;;;19.80;38.90;;;;;;4955723;28;20186;-75
2022/06/04 05:11:14;;;;;;;3.10;0.90;;;19.70;38.30;;;;;;4954558;28;20654;-84
2022/06/04 05:13:41;;;;;;;0.73;0.70;;;19.90;38.20;;;;;;4947702;28;20324;-79
2022/06/04 05:16:09;;;;;;;1.50;0.80;;;19.90;38.60;;;;;;4955024;29;20214;-79
2022/06/04 05:18:36;;;;;;;1.10;0.73;;;20.20;38.10;;;;;;4954220;28;20237;-79
2022/06/04 05:21:23;;;;;;;2.47;0.90;;;19.70;38.50;;;;;;4955146;28;20230;-76
2022/06/04 05:23:53;;;;;;;1.30;0.70;;;19.40;39.00;;;;;;4934890;29;20221;-84
2022/06/04 05:26:23;;;;;;;2.20;0.80;;;19.90;38.70;;;;;;4942637;28;20230;-84
2022/06/04 05:28:51;;;;;;;1.77;1.00;;;20.60;37.90;;;;;;4947338;28;20187;-76
2022/06/04 05:31:19;;;;;;;0.90;0.80;;;20.70;37.10;;;;;;4955215;28;20239;-82
2022/06/04 05:33:47;;;;;;;0.97;0.70;;;20.10;38.20;;;;;;4955101;29;20190;-77
2022/06/04 05:36:15;;;;;;;1.10;0.70;;;19.80;38.70;;;;;;4954410;28;20647;-78
2022/06/04 05:38:43;;;;;;;0.80;0.80;;;19.70;39.10;;;;;;4954436;28;20180;-83
2022/06/04 05:41:15;;;;;;;1.07;0.80;;;19.50;39.30;;;;;;4954014;28;20214;-79
2022/06/04 05:43:43;;;;;;;1.27;0.90;;;19.40;39.40;;;;;;4953497;28;20578;-75
2022/06/04 05:46:12;;;;;;;1.50;0.90;;;19.30;40.00;;;;;;4951836;28;20219;-76
2022/06/04 05:48:45;;;;;;;2.33;0.90;;;19.20;40.30;;;;;;4950210;28;20176;-78
2022/06/04 05:51:15;;;;;;;0.77;0.70;;;19.50;39.80;;;;;;4930921;29;20187;-80
2022/06/04 05:53:43;;;;;;;1.27;0.90;;;19.60;39.40;;;;;;4953834;28;20231;-83
2022/06/04 05:56:18;;;;;;;1.80;1.00;;;19.80;39.30;;;;;;4952325;28;20180;-77
2022/06/04 05:58:51;;;;;;;1.93;0.90;;;19.90;38.50;;;;;;4946772;29;20617;-77
2022/06/04 06:01:21;;;;;;;1.73;0.97;;;20.00;38.70;;;;;;4951950;28;20183;-80
2022/06/04 06:03:49;;;;;;;1.63;1.10;;;20.00;38.60;;;;;;4948485;29;20190;-77
2022/06/04 06:06:23;;;;;;;1.00;0.80;;;19.00;40.70;;;;;;4958466;29;20210;-79
2022/06/04 06:08:52;;;;;;;2.63;1.00;;;18.20;42.80;;;;;;4956893;28;20238;-81
2022/06/04 06:11:20;;;;;;;2.67;0.90;;;17.80;44.10;;;;;;4953325;28;20186;-84
2022/06/04 06:13:49;;;;;;;1.10;1.00;;;17.70;44.40;;;;;;4953692;28;20194;-80
2022/06/04 06:16:23;;;;;;;1.77;1.20;;;17.70;45.20;;;;;;4954046;29;20189;-83
2022/06/04 06:18:50;;;;;;;1.73;1.07;;;17.60;45.10;;;;;;4954727;28;20183;-80
2022/06/04 06:21:21;;;;;;;1.33;1.10;;;17.50;45.00;;;;;;4954557;28;20239;-77
2022/06/04 06:23:50;;;;;;;1.00;0.90;;;17.10;45.90;;;;;;4954674;28;20269;-78
2022/06/04 06:26:21;;;;;;;4.93;1.20;;;16.90;46.20;;;;;;4953607;29;20764;-78
2022/06/04 06:28:49;;;;;;;1.53;1.30;;;16.70;47.20;;;;;;4925396;29;20543;-82
2022/06/04 06:31:24;;;;;;;3.03;1.40;;;16.50;47.70;;;;;;4952455;28;20216;-79
2022/06/04 06:33:52;;;;;;;2.87;1.30;;;16.30;48.30;;;;;;4953473;29;20178;-79
2022/06/04 06:36:21;;;;;;;2.73;1.17;;;16.20;49.00;;;;;;4952467;28;20523;-76
2022/06/04 06:38:49;;;;;;;1.83;1.20;;;16.00;49.10;;;;;;4954629;28;20214;-86
2022/06/04 06:41:19;;;;;;;3.17;1.10;;;15.90;49.20;;;;;;4947773;28;20183;-76
2022/06/04 06:43:49;;;;;;;2.93;1.63;;;15.80;49.60;;;;;;4952015;28;20271;-79
2022/06/04 06:46:24;;;;;;;1.60;1.10;;;15.70;50.10;;;;;;4954037;29;20576;-83
2022/06/04 06:48:56;;;;;;;1.40;1.07;;;15.60;50.60;;;;;;4953383;28;20511;-84
2022/06/04 06:51:47;;;;;;;2.40;1.10;;;15.50;50.30;;;;;;4953004;28;20211;-77
2022/06/04 06:54:17;;;;;;;2.90;1.10;;;15.40;51.50;;;;;;4944184;28;20278;-84
2022/06/04 06:56:46;;;;;;;2.10;1.20;;;15.30;51.70;;;;;;4952080;28;20183;-80
2022/06/04 06:59:14;;;;;;;5.60;3.30;;;15.20;52.20;;;;;;4933063;29;20210;-80
2022/06/04 07:01:44;;;;;;;3.37;2.30;;;15.20;52.60;;;;;;4956918;28;20587;-83
2022/06/04 07:04:12;;;;;;;3.07;2.20;;;15.00;52.70;;;;;;4956705;28;20234;-78
2022/06/04 07:06:44;;;;;;;1.40;1.30;;;15.00;53.00;;;;;;4956384;28;20223;-80
2022/06/04 07:09:17;;;;;;;1.50;1.20;;;15.00;52.70;;;;;;4957167;28;20199;-77
2022/06/04 07:11:45;;;;;;;2.83;1.17;;;14.80;53.30;;;;;;4956643;29;20589;-80
2022/06/04 07:14:13;;;;;;;2.50;1.30;;;14.80;52.70;;;;;;4954729;28;20187;-78
2022/06/04 07:16:41;;;;;;;5.90;1.40;;;14.80;52.80;;;;;;4955449;28;20180;-81
2022/06/04 07:19:10;;;;;;;2.47;1.40;;;14.70;53.00;;;;;;4956997;28;20187;-77
2022/06/04 07:21:38;;;;;;;2.50;1.40;;;14.60;53.60;;;;;;4938549;29;20214;-79
2022/06/04 07:24:05;;;;;;;1.60;1.33;;;14.50;53.70;;;;;;4956820;29;20183;-78
2022/06/04 07:26:33;;;;;;;1.67;1.30;;;14.50;53.80;;;;;;4956618;28;20230;-75
2022/06/04 07:29:00;;;;;;;1.93;1.33;;;14.40;54.00;;;;;;4956564;28;20663;-76
2022/06/04 07:31:29;;;;;;;1.50;1.30;;;14.40;54.60;;;;;;4957485;29;20267;-75
2022/06/04 07:33:58;;;;;;;3.07;1.83;;;14.30;54.90;;;;;;4949886;28;20187;-77
2022/06/04 07:36:32;;;;;;;3.43;1.63;;;14.30;54.90;;;;;;4956530;28;20218;-76
2022/06/04 07:39:00;;;;;;;2.73;2.07;;;14.20;55.10;;;;;;4957228;28;20186;-78
2022/06/04 07:41:34;;;;;;;4.83;4.03;;;14.20;55.20;;;;;;4955539;29;20192;-77
2022/06/04 07:44:02;;;;;;;4.63;2.93;;;14.10;55.70;;;;;;4939308;28;20270;-77
2022/06/04 07:46:30;;;;;;;3.43;2.07;;;14.00;55.60;;;;;;4954808;28;20214;-76
2022/06/04 07:49:03;;;;;;;4.40;2.10;;;14.00;55.60;;;;;;4949654;29;20180;-77
2022/06/04 07:51:35;;;;;;;1.97;1.70;;;14.00;56.10;;;;;;4954337;28;20215;-81
2022/06/04 07:54:04;;;;;;;3.77;2.70;;;14.00;55.90;;;;;;4959286;28;20549;-76
2022/06/04 07:56:32;;;;;;;3.37;2.00;;;13.90;56.00;;;;;;4955621;28;20187;-77
2022/06/04 07:58:59;;;;;;;4.47;2.30;;;13.90;56.50;;;;;;4948546;29;20176;-76
2022/06/04 08:01:28;;;;;;;3.70;2.13;;;13.90;56.10;;;;;;4957024;28;20596;-79
2022/06/04 08:03:56;;;;;;;2.53;2.20;;;13.80;56.60;;;;;;4949284;29;20650;-77
2022/06/04 08:06:24;;;;;;;3.27;2.40;;;13.80;57.10;;;;;;4955176;28;20566;-76
2022/06/04 08:08:57;;;;;;;2.27;1.77;;;13.80;57.20;;;;;;4954178;28;20184;-76
2022/06/04 08:11:31;;;;;;;3.90;1.90;;;13.80;57.00;;;;;;4953388;28;20179;-76
2022/06/04 08:14:03;;;;;;;3.63;2.00;;;13.80;57.40;;;;;;4955937;28;20182;-76
2022/06/04 08:16:31;;;;;;;3.93;2.03;;;13.70;57.70;;;;;;4955487;28;20345;-76
2022/06/04 08:18:58;;;;;;;2.90;1.80;;;13.60;57.90;;;;;;4936699;28;20674;-76
2022/06/04 08:21:26;;;;;;;3.73;2.30;;;13.50;58.10;;;;;;4955084;28;20175;-76
2022/06/04 08:23:53;;;;;;;5.60;3.43;;;13.50;58.90;;;;;;4947603;28;20194;-76
2022/06/04 08:26:20;;;;;;;8.30;4.13;;;13.40;59.00;;;;;;4954750;28;20310;-77
2022/06/04 08:28:48;;;;;;;4.67;2.50;;;13.40;59.30;;;;;;4956405;28;20623;-77
2022/06/04 08:31:16;;;;;;;4.03;2.43;;;13.30;59.10;;;;;;4956905;28;20188;-75
2022/06/04 08:33:44;;;;;;;4.80;2.33;;;13.40;59.00;;;;;;4938077;29;20187;-76
2022/06/04 08:36:13;;;;;;;3.10;2.27;;;13.30;59.00;;;;;;4954973;28;20269;-76
2022/06/04 08:38:41;;;;;;;2.73;2.27;;;13.30;59.00;;;;;;4956185;29;20183;-76
2022/06/04 08:41:20;;;;;;;3.77;2.63;;;13.30;59.20;;;;;;4938628;29;20175;-75
2022/06/04 08:44:17;;;;;;;3.90;2.10;;;13.30;59.60;;;;;;4955915;29;20226;-75
2022/06/04 08:46:50;;;;;;;5.80;3.67;;;13.20;59.60;;;;;;4951450;28;20225;-75
2022/06/04 08:49:48;;;;;;;3.73;2.87;;;13.20;59.80;;;;;;4955453;29;20701;-75
2022/06/04 08:52:52;;;;;;;4.23;2.93;;;13.20;60.00;;;;;;4945803;28;20293;-75
2022/06/04 08:58:50;;;;;;;4.73;3.23;;;13.10;60.10;;;;;;4955657;28;20201;-75
2022/06/04 09:01:27;;;;;;;5.60;3.27;;;13.00;60.60;;;;;;4940538;29;20191;-77
2022/06/04 09:04:21;;;;;;;3.40;2.93;;;13.00;60.70;;;;;;4946789;29;20187;-76
2022/06/04 09:07:12;;;;;;;3.70;2.67;;;13.00;60.80;;;;;;4954713;28;20696;-76
2022/06/04 09:09:45;;;;;;;3.57;2.60;;;13.00;60.80;;;;;;4955442;28;20533;-76
2022/06/04 09:12:26;;;;;;;3.07;2.50;;;13.00;60.90;;;;;;4954958;28;20482;-76
2022/06/04 09:15:16;;;;;;;2.87;2.47;;;13.00;60.90;;;;;;4952084;28;20179;-76
2022/06/04 09:17:51;;;;;;;4.03;2.90;;;13.00;61.20;;;;;;4950595;28;20197;-76
2022/06/04 09:20:43;;;;;;;3.57;3.00;;;12.90;61.90;;;;;;4949938;28;20179;-76
2022/06/04 09:23:31;;;;;;;3.13;2.47;;;12.80;62.40;;;;;;4942414;28;20207;-77
2022/06/04 09:26:21;;;;;;;8.23;5.30;;;12.80;62.20;;;;;;4953216;28;20647;-76
2022/06/04 09:29:11;;;;;;;6.80;3.50;;;12.80;62.00;;;;;;4947071;28;20271;-76
2022/06/04 09:32:09;;;;;;;6.87;4.33;;;12.80;61.90;;;;;;4937386;29;20317;-76
2022/06/04 09:34:50;;;;;;;5.53;3.70;;;12.80;62.40;;;;;;4941045;28;20215;-76
2022/06/04 09:37:18;;;;;;;4.67;3.47;;;12.70;62.60;;;;;;4954490;28;20205;-77
2022/06/04 09:39:48;;;;;;;6.27;3.70;;;12.70;62.70;;;;;;4954340;28;20258;-76
2022/06/04 09:42:23;;;;;;;4.83;3.17;;;12.70;62.90;;;;;;4945964;29;20650;-77
2022/06/04 09:44:51;;;;;;;5.33;3.20;;;12.60;63.00;;;;;;4954575;28;20187;-75
2022/06/04 09:47:45;;;;;;;3.47;2.60;;;12.60;63.00;;;;;;4954332;28;20218;-76
2022/06/04 09:50:39;;;;;;;3.37;2.60;;;12.60;62.90;;;;;;4940632;28;20218;-77
2022/06/04 09:53:23;;;;;;;3.70;2.87;;;12.60;62.80;;;;;;4954626;28;20187;-76
2022/06/04 09:55:59;;;;;;;4.60;2.87;;;12.50;63.00;;;;;;4952866;29;20238;-77
2022/06/04 09:58:30;;;;;;;6.47;2.70;;;12.50;62.90;;;;;;4953112;28;20243;-76
2022/06/04 10:01:29;;;;;;;4.07;2.40;;;12.50;63.10;;;;;;4953469;28;20191;-76
2022/06/04 10:04:04;;;;;;;2.63;2.40;;;12.50;63.40;;;;;;4901334;28;20673;-76
2022/06/04 10:06:31;;;;;;;7.83;2.90;;;12.40;63.40;;;;;;4951395;28;20260;-76
2022/06/04 10:11:59;;;;;;;3.40;2.27;;;12.50;63.20;;;;;;4943670;28;20721;-76
2022/06/04 10:14:40;;;;;;;3.10;2.80;;;12.40;63.70;;;;;;4953070;28;20187;-76
2022/06/04 10:17:32;;;;;;;3.87;2.80;;;12.30;63.80;;;;;;4953358;28;20270;-76
2022/06/04 10:20:00;;;;;;;6.63;3.00;;;12.40;63.60;;;;;;4954181;28;20542;-77
2022/06/04 10:22:27;;;;;;;4.17;2.87;;;12.30;64.00;;;;;;4952255;28;20270;-75
2022/06/04 10:24:58;;;;;;;4.90;3.70;;;12.30;64.90;;;;;;4951410;28;20574;-75
2022/06/04 10:27:48;;;;;;;6.97;3.57;;;12.20;65.70;;;;;;4936053;29;20549;-75
2022/06/04 10:30:24;;;;;;;4.10;3.17;;;12.20;65.40;;;;;;4956365;28;20535;-75
2022/06/04 10:33:12;;;;;;;5.10;3.23;;;12.20;65.40;;;;;;4955243;28;20298;-76
2022/06/04 10:35:42;;;;;;;4.27;2.77;;;12.20;65.20;;;;;;4958066;29;20261;-76
2022/06/04 10:38:33;;;;;;;3.33;2.80;;;12.20;64.80;;;;;;4956354;28;20187;-76
2022/06/04 10:41:32;;;;;;;4.37;2.73;;;12.10;65.00;;;;;;4941032;29;20191;-76
2022/06/04 10:44:34;;;;;;;5.47;2.67;;;12.20;65.10;;;;;;4949176;28;20190;-76
2022/06/04 10:47:13;;;;;;;3.43;2.70;;;12.10;65.20;;;;;;4939960;28;20330;-76
2022/06/04 10:49:46;;;;;;;6.77;2.43;;;12.20;65.60;;;;;;4957585;28;20250;-76
2022/06/04 10:52:19;;;;;;;5.03;3.00;;;12.10;65.40;;;;;;4958248;28;20184;-76
2022/06/04 10:54:59;;;;;;;4.37;2.63;;;12.10;65.20;;;;;;4957950;28;20721;-75
2022/06/04 10:57:32;;;;;;;4.80;2.27;;;12.10;65.30;;;;;;4957064;28;20222;-75
2022/06/04 11:00:20;;;;;;;6.30;2.50;;;12.10;65.40;;;;;;4955709;28;20197;-75
2022/06/04 11:03:18;;;;;;;3.70;2.40;;;12.00;65.50;;;;;;4955102;28;20662;-75
2022/06/04 11:05:54;;;;;;;2.57;2.30;;;12.00;65.30;;;;;;4957499;28;20730;-75
2022/06/04 11:08:21;;;;;;;6.43;2.53;;;12.00;65.50;;;;;;4955216;28;20289;-75
2022/06/04 11:10:58;;;;;;;2.50;2.10;;;12.00;65.80;;;;;;4957051;28;20270;-75
2022/06/04 11:13:30;;;;;;;2.97;1.97;;;11.90;66.00;;;;;;4945763;28;20193;-75
2022/06/04 11:16:19;;;;;;;1.97;1.73;;;11.90;65.80;;;;;;4955224;28;20202;-75
2022/06/04 11:18:58;;;;;;;2.23;2.03;;;12.00;65.60;;;;;;4957056;28;20238;-75
2022/06/04 11:21:34;;;;;;;3.00;2.30;;;12.00;65.70;;;;;;4957561;29;20199;-75
2022/06/04 11:24:27;;;;;;;2.50;2.10;;;11.90;65.90;;;;;;4956803;28;20193;-75
2022/06/04 11:27:23;;;;;;;3.57;2.37;;;11.90;66.00;;;;;;4956081;29;20317;-75
2022/06/04 11:29:53;;;;;;;2.90;2.27;;;12.00;65.60;;;;;;4956494;28;20181;-75
2022/06/04 11:32:37;;;;;;;3.23;2.30;;;12.00;65.50;;;;;;4956158;28;20251;-75
2022/06/04 11:35:15;;;;;;;3.70;2.40;;;12.10;65.50;;;;;;4952874;28;20195;-75
2022/06/04 11:37:54;;;;;;;4.90;2.23;;;12.00;65.50;;;;;;4956748;28;20187;-75
2022/06/04 11:41:05;;;;;;;3.17;2.10;;;12.00;65.40;;;;;;4956532;29;20187;-74
2022/06/04 11:43:46;;;;;;;2.40;2.00;;;12.00;65.70;;;;;;4957056;28;20175;-75
2022/06/04 11:46:38;;;;;;;2.93;2.07;;;12.10;65.70;;;;;;4954491;28;20228;-74
2022/06/04 11:49:14;;;;;;;5.73;2.40;;;12.00;65.60;;;;;;4944312;28;20184;-75
2022/06/04 11:52:05;;;;;;;2.60;2.10;;;12.00;65.90;;;;;;4949191;28;20189;-73
2022/06/04 11:54:44;;;;;;;5.00;2.10;;;12.00;65.60;;;;;;4951914;28;20204;-76
2022/06/04 11:57:37;;;;;;;3.57;2.10;;;12.10;65.30;;;;;;4952278;28;20219;-75
2022/06/04 12:00:31;;;;;;;2.70;2.37;;;12.10;65.40;;;;;;4955671;28;20206;-75
2022/06/04 12:03:16;;;;;;;3.00;2.10;;;12.10;65.30;;;;;;4956179;28;20190;-74
2022/06/04 12:05:55;;;;;;;3.23;2.13;;;12.10;65.30;;;;;;4951313;28;20215;-75
2022/06/04 12:08:47;;;;;;;3.50;2.07;;;12.10;65.30;;;;;;4953112;28;20201;-76
2022/06/04 12:11:35;;;;;;;2.97;1.80;;;12.10;65.40;;;;;;4953770;28;20242;-75
2022/06/04 12:14:17;;;;;;;4.47;2.10;;;12.00;65.90;;;;;;4950427;28;20525;-76
2022/06/04 12:16:53;;;;;;;2.43;1.77;;;12.00;66.60;;;;;;4941436;29;20186;-76
2022/06/04 12:25:45;;;;;;;2.57;1.77;;;11.70;67.80;;;;;;4946812;28;21067;-75
2022/06/04 12:28:30;;;;;;;2.80;1.90;;;11.70;67.50;;;;;;4955504;28;20187;-75
2022/06/04 12:31:01;;;;;;;2.67;2.20;;;11.70;67.80;;;;;;4955939;28;20903;-76
2022/06/04 12:33:52;;;;;;;2.20;1.73;;;11.60;67.90;;;;;;4955959;29;20194;-73
2022/06/04 12:36:29;;;;;;;5.53;1.70;;;11.60;68.00;;;;;;4948599;28;20191;-73
2022/06/04 12:39:25;;;;;;;9.73;6.40;;;11.60;67.70;;;;;;4943129;29;20580;-74
2022/06/04 12:41:56;;;;;;;8.30;6.67;;;11.60;67.70;;;;;;4938674;28;20274;-75
2022/06/04 12:44:33;;;;;;;3.50;2.30;;;11.60;68.20;;;;;;4955528;28;20233;-75
2022/06/04 12:47:24;;;;;;;3.03;1.60;;;11.60;68.20;;;;;;4955717;28;20214;-75
2022/06/04 12:50:20;;;;;;;2.80;1.97;;;11.60;68.40;;;;;;4944391;29;20231;-75
2022/06/04 12:52:59;;;;;;;3.10;1.90;;;11.60;68.10;;;;;;4955367;28;20183;-78
2022/06/04 12:55:33;;;;;;;2.10;1.90;;;11.70;67.60;;;;;;4947466;28;20226;-76
2022/06/04 12:58:08;;;;;;;2.60;1.53;;;11.60;67.60;;;;;;4953214;28;20189;-76
2022/06/04 13:00:40;;;;;;;1.70;1.50;;;11.70;67.80;;;;;;4948403;29;20340;-75
2022/06/04 13:03:10;;;;;;;3.70;1.80;;;11.60;68.00;;;;;;4955703;29;20183;-76
2022/06/04 13:05:58;;;;;;;2.57;1.70;;;11.60;67.90;;;;;;4955507;28;20187;-76
2022/06/04 13:08:35;;;;;;;4.17;2.20;;;11.70;67.60;;;;;;4943775;29;20206;-75
2022/06/04 13:11:06;;;;;;;2.07;1.73;;;11.60;67.90;;;;;;4955036;29;20180;-76
2022/06/04 13:13:42;;;;;;;3.57;1.77;;;11.50;68.50;;;;;;4955341;29;20214;-76
2022/06/04 13:16:24;;;;;;;4.50;1.83;;;11.50;68.30;;;;;;4954617;29;20268;-75
2022/06/04 13:19:09;;;;;;;1.80;1.70;;;11.40;68.50;;;;;;4954851;28;20218;-75
2022/06/04 13:21:42;;;;;;;2.53;1.90;;;11.60;67.70;;;;;;4955327;29;20185;-76
2022/06/04 13:24:26;;;;;;;2.93;1.73;;;11.60;67.70;;;;;;4954695;28;20274;-76
2022/06/04 13:27:07;;;;;;;3.90;1.70;;;11.60;67.50;;;;;;4954773;29;20218;-76
2022/06/04 13:29:37;;;;;;;3.70;1.77;;;11.60;67.20;;;;;;4954362;29;20265;-76
2022/06/04 13:32:17;;;;;;;1.63;1.50;;;11.60;67.40;;;;;;4954467;28;20190;-76
2022/06/04 13:34:45;;;;;;;3.37;1.80;;;11.60;67.60;;;;;;4955080;29;20175;-76
2022/06/04 13:37:23;;;;;;;2.00;1.67;;;11.50;67.60;;;;;;4937656;29;20274;-75
2022/06/04 13:39:53;;;;;;;1.53;1.40;;;11.60;67.80;;;;;;4954535;28;20657;-75
2022/06/04 13:42:35;;;;;;;2.97;1.50;;;11.50;68.00;;;;;;4954284;28;20323;-75
2022/06/04 13:45:19;;;;;;;7.37;2.13;;;11.50;67.90;;;;;;4954613;28;20210;-75
2022/06/04 13:47:56;;;;;;;2.17;1.90;;;11.50;68.20;;;;;;4954698;29;20218;-75
2022/06/04 13:50:25;;;;;;;1.57;1.47;;;11.40;68.20;;;;;;4922754;29;20182;-75